createdAt,value
2018-09-03T00:00:56.105Z,19.44
2018-09-03T00:03:24.331Z,19.49
2018-09-03T00:05:52.826Z,19.56
2018-09-03T00:08:21.061Z,19.59
2018-09-03T00:10:49.489Z,19.49
2018-09-03T00:13:17.696Z,19.43
2018-09-03T00:15:45.907Z,19.45
2018-09-03T00:18:14.154Z,19.42
2018-09-03T00:20:42.392Z,19.48
2018-09-03T00:23:10.690Z,19.50
2018-09-03T00:25:39.037Z,19.48
2018-09-03T00:28:07.284Z,19.48
2018-09-03T00:30:35.628Z,19.39
2018-09-03T00:33:21.714Z,19.44
2018-09-03T00:36:07.744Z,19.37
2018-09-03T00:38:53.448Z,19.35
2018-09-03T00:41:39.675Z,19.26
2018-09-03T00:44:25.803Z,19.22
2018-09-03T00:47:00.168Z,19.16
2018-09-03T00:49:30.128Z,19.19
2018-09-03T00:51:58.403Z,19.21
2018-09-03T00:54:26.599Z,19.24
2018-09-03T00:56:54.805Z,19.31
2018-09-03T00:59:23.027Z,19.28
2018-09-03T01:01:51.282Z,19.23
2018-09-03T01:04:19.628Z,19.17
2018-09-03T01:06:47.893Z,19.13
2018-09-03T01:09:16.075Z,19.10
2018-09-03T01:11:44.335Z,19.10
2018-09-03T01:14:12.551Z,19.11
2018-09-03T01:16:41.017Z,19.04
2018-09-03T01:19:09.195Z,19.06
2018-09-03T01:21:37.453Z,19.09
2018-09-03T01:24:05.733Z,19.15
2018-09-03T01:26:34.006Z,19.17
2018-09-03T01:29:02.226Z,19.16
2018-09-03T01:31:30.466Z,19.18
2018-09-03T01:33:58.648Z,19.20
2018-09-03T01:36:26.827Z,19.09
2018-09-03T01:38:55.092Z,19.13
2018-09-03T01:41:23.390Z,19.08
2018-09-03T01:43:51.634Z,19.06
2018-09-03T01:46:19.849Z,19.07
2018-09-03T01:48:48.123Z,19.07
2018-09-03T01:51:16.445Z,19.06
2018-09-03T01:53:44.673Z,19.06
2018-09-03T01:56:13.119Z,19.03
2018-09-03T01:58:41.396Z,19.08
2018-09-03T02:01:09.784Z,19.08
2018-09-03T02:03:38.106Z,18.98
2018-09-03T02:06:06.475Z,18.96
2018-09-03T02:08:34.892Z,18.98
2018-09-03T02:11:03.164Z,18.96
2018-09-03T02:13:32.680Z,18.96
2018-09-03T02:16:00.972Z,18.98
2018-09-03T02:18:29.165Z,18.92
2018-09-03T02:20:57.456Z,18.94
2018-09-03T02:23:25.776Z,18.87
2018-09-03T02:25:53.973Z,18.95
2018-09-03T02:28:22.248Z,18.94
2018-09-03T02:30:50.573Z,18.97
2018-09-03T02:33:18.780Z,18.99
2018-09-03T02:35:47.012Z,19.04
2018-09-03T02:38:15.280Z,19.04
2018-09-03T02:40:43.574Z,18.97
2018-09-03T02:43:11.810Z,18.87
2018-09-03T02:45:40.072Z,18.85
2018-09-03T02:48:08.380Z,18.92
2018-09-03T02:50:37.026Z,18.97
2018-09-03T02:53:05.242Z,18.92
2018-09-03T02:55:33.478Z,18.86
2018-09-03T02:58:01.714Z,18.84
2018-09-03T03:00:30.092Z,18.81
2018-09-03T03:02:58.981Z,18.78
2018-09-03T03:05:28.492Z,18.80
2018-09-03T03:07:57.214Z,18.77
2018-09-03T03:10:25.505Z,18.78
2018-09-03T03:12:53.788Z,18.73
2018-09-03T03:15:22.019Z,18.72
2018-09-03T03:17:50.283Z,18.74
2018-09-03T03:20:18.537Z,18.70
2018-09-03T03:22:46.794Z,18.75
2018-09-03T03:25:14.983Z,18.76
2018-09-03T03:27:43.169Z,18.76
2018-09-03T03:30:11.520Z,18.69
2018-09-03T03:32:40.119Z,18.66
2018-09-03T03:35:09.433Z,18.71
2018-09-03T03:37:37.720Z,18.74
2018-09-03T03:40:06.171Z,18.82
2018-09-03T03:42:34.454Z,18.83
2018-09-03T03:45:02.850Z,18.79
2018-09-03T03:47:31.073Z,18.75
2018-09-03T03:49:59.355Z,18.79
2018-09-03T03:52:27.737Z,18.80
2018-09-03T03:54:55.870Z,18.84
2018-09-03T03:57:24.156Z,18.81
2018-09-03T03:59:52.384Z,18.80
2018-09-03T04:02:20.639Z,18.82
2018-09-03T04:04:49.250Z,18.84
2018-09-03T04:07:18.086Z,18.83
2018-09-03T04:09:46.304Z,18.79
2018-09-03T04:12:14.686Z,18.73
2018-09-03T04:14:42.900Z,18.69
2018-09-03T04:17:11.164Z,18.71
2018-09-03T04:19:39.377Z,18.69
2018-09-03T04:22:07.620Z,18.83
2018-09-03T04:24:36.000Z,18.90
2018-09-03T04:27:04.374Z,18.81
2018-09-03T04:29:32.684Z,18.82
2018-09-03T04:32:01.344Z,18.86
2018-09-03T04:34:31.855Z,18.88
2018-09-03T04:36:58.505Z,18.87
2018-09-03T04:39:26.786Z,18.80
2018-09-03T04:41:55.077Z,18.85
2018-09-03T04:44:23.424Z,18.84
2018-09-03T04:46:51.613Z,18.87
2018-09-03T04:49:20.256Z,18.87
2018-09-03T04:51:48.763Z,18.85
2018-09-03T04:54:17.116Z,18.90
2018-09-03T04:59:13.091Z,18.87
2018-09-03T05:01:41.476Z,18.90
2018-09-03T05:04:09.757Z,18.84
2018-09-03T05:06:38.123Z,18.82
2018-09-03T05:09:07.137Z,18.81
2018-09-03T05:11:35.740Z,18.85
2018-09-03T05:14:04.923Z,18.88
2018-09-03T05:16:33.145Z,18.95
2018-09-03T05:19:01.438Z,18.99
2018-09-03T05:21:29.818Z,18.95
2018-09-03T05:23:58.127Z,18.94
2018-09-03T05:26:26.573Z,18.95
2018-09-03T05:28:55.067Z,18.89
2018-09-03T05:31:23.422Z,18.91
2018-09-03T05:33:51.674Z,18.87
2018-09-03T05:36:19.914Z,18.88
2018-09-03T05:38:48.279Z,18.91
2018-09-03T05:41:16.940Z,18.98
2018-09-03T05:43:45.258Z,19.06
2018-09-03T05:46:13.399Z,19.05
2018-09-03T05:48:41.903Z,19.06
2018-09-03T05:51:10.420Z,19.08
2018-09-03T05:53:38.760Z,19.07
2018-09-03T05:56:06.985Z,19.07
2018-09-03T05:58:35.233Z,19.07
2018-09-03T06:01:04.490Z,18.99
2018-09-03T06:03:32.800Z,19.04
2018-09-03T06:06:01.305Z,19.04
2018-09-03T06:08:30.450Z,19.05
2018-09-03T06:10:58.785Z,19.07
2018-09-03T06:13:27.085Z,19.07
2018-09-03T06:15:55.315Z,19.07
2018-09-03T06:18:23.538Z,19.11
2018-09-03T06:20:51.690Z,19.11
2018-09-03T06:23:20.041Z,19.08
2018-09-03T06:25:48.369Z,19.07
2018-09-03T06:28:16.781Z,19.12
2018-09-03T06:30:45.033Z,19.12
2018-09-03T06:33:13.453Z,19.14
2018-09-03T06:35:41.795Z,19.16
2018-09-03T06:38:10.022Z,19.22
2018-09-03T06:40:38.252Z,19.28
2018-09-03T06:43:06.588Z,19.30
2018-09-03T06:45:34.901Z,19.33
2018-09-03T06:48:03.440Z,19.30
2018-09-03T06:50:31.742Z,19.35
2018-09-03T06:53:00.039Z,19.42
2018-09-03T06:55:28.334Z,19.40
2018-09-03T06:57:56.649Z,19.46
2018-09-03T07:00:25.094Z,19.46
2018-09-03T07:02:53.402Z,19.47
2018-09-03T07:05:22.567Z,19.51
2018-09-03T07:07:50.886Z,19.50
2018-09-03T07:10:19.217Z,19.51
2018-09-03T07:12:47.423Z,19.54
2018-09-03T07:15:15.685Z,19.55
2018-09-03T07:17:43.937Z,19.55
2018-09-03T07:20:12.495Z,19.50
2018-09-03T07:22:40.730Z,19.53
2018-09-03T07:25:09.058Z,19.57
2018-09-03T07:27:37.649Z,19.54
2018-09-03T07:30:05.934Z,19.57
2018-09-03T07:32:34.278Z,19.55
2018-09-03T07:35:02.616Z,19.58
2018-09-03T07:37:30.832Z,19.60
2018-09-03T07:39:59.144Z,19.58
2018-09-03T07:42:27.365Z,19.65
2018-09-03T07:44:55.651Z,19.63
2018-09-03T07:47:23.802Z,19.66
2018-09-03T07:49:52.118Z,19.58
2018-09-03T07:52:20.440Z,19.55
2018-09-03T07:54:49.235Z,19.58
2018-09-03T07:57:17.704Z,19.57
2018-09-03T07:59:45.989Z,19.53
2018-09-03T08:02:14.261Z,19.52
2018-09-03T08:04:42.525Z,19.57
2018-09-03T08:07:10.863Z,19.62
2018-09-03T08:09:39.186Z,19.65
2018-09-03T08:12:07.697Z,19.67
2018-09-03T08:14:36.041Z,19.63
2018-09-03T08:17:04.310Z,19.62
2018-09-03T08:19:32.596Z,19.60
2018-09-03T08:22:01.582Z,19.65
2018-09-03T08:24:29.808Z,19.72
2018-09-03T08:26:58.015Z,19.76
2018-09-03T08:29:26.484Z,19.78
2018-09-03T08:31:55.723Z,19.79
2018-09-03T08:34:24.324Z,19.77
2018-09-03T08:36:52.648Z,19.71
2018-09-03T08:39:22.018Z,19.69
2018-09-03T08:41:49.347Z,19.74
2018-09-03T08:44:17.926Z,19.86
2018-09-03T08:46:46.237Z,19.97
2018-09-03T08:49:14.480Z,20.19
2018-09-03T08:51:42.800Z,20.31
2018-09-03T08:54:12.919Z,20.49
2018-09-03T08:56:41.305Z,20.48
2018-09-03T08:59:09.638Z,20.54
2018-09-03T09:01:37.875Z,20.65
2018-09-03T09:04:06.142Z,20.91
2018-09-03T09:06:34.538Z,21.20
2018-09-03T09:09:02.793Z,21.49
2018-09-03T09:11:31.083Z,21.67
2018-09-03T09:13:59.371Z,21.68
2018-09-03T09:16:27.795Z,21.62
2018-09-03T09:18:56.049Z,21.75
2018-09-03T09:21:24.322Z,21.95
2018-09-03T09:23:52.623Z,21.82
2018-09-03T09:26:20.900Z,21.80
2018-09-03T09:28:49.131Z,21.94
2018-09-03T09:31:17.478Z,22.12
2018-09-03T09:33:45.731Z,22.31
2018-09-03T09:36:14.153Z,22.28
2018-09-03T09:38:42.400Z,22.41
2018-09-03T09:41:10.667Z,22.48
2018-09-03T09:43:38.984Z,22.57
2018-09-03T09:46:07.323Z,22.72
2018-09-03T09:48:35.555Z,22.74
2018-09-03T09:51:04.124Z,22.74
2018-09-03T09:53:32.370Z,22.78
2018-09-03T09:56:00.634Z,22.86
2018-09-03T09:58:29.759Z,23.02
2018-09-03T10:01:15.822Z,22.98
2018-09-03T10:03:44.216Z,23.02
2018-09-03T10:06:12.478Z,23.39
2018-09-03T10:08:40.887Z,23.58
2018-09-03T10:11:09.121Z,23.51
2018-09-03T10:13:37.450Z,23.48
2018-09-03T10:16:05.739Z,23.52
2018-09-03T10:18:34.410Z,23.65
2018-09-03T10:21:02.814Z,23.67
2018-09-03T10:23:31.140Z,23.80
2018-09-03T10:25:59.563Z,23.93
2018-09-03T10:28:27.784Z,24.09
2018-09-03T10:30:56.158Z,24.37
2018-09-03T10:33:24.464Z,24.57
2018-09-03T10:35:52.811Z,24.68
2018-09-03T10:38:21.037Z,24.93
2018-09-03T10:40:49.313Z,25.16
2018-09-03T10:43:17.535Z,24.88
2018-09-03T10:45:46.754Z,25.16
2018-09-03T10:48:16.296Z,25.26
2018-09-03T10:50:44.658Z,25.32
2018-09-03T10:53:13.163Z,25.17
2018-09-03T10:55:41.897Z,25.25
2018-09-03T10:58:11.006Z,25.41
2018-09-03T11:00:39.223Z,25.51
2018-09-03T11:03:08.317Z,25.82
2018-09-03T11:05:39.236Z,25.91
2018-09-03T11:08:07.517Z,26.09
2018-09-03T11:10:35.752Z,25.89
2018-09-03T11:13:04.029Z,25.73
2018-09-03T11:15:32.351Z,26.03
2018-09-03T11:18:00.589Z,25.91
2018-09-03T11:20:30.247Z,26.05
2018-09-03T11:22:59.123Z,26.36
2018-09-03T11:25:29.461Z,26.48
2018-09-03T11:27:57.734Z,26.56
2018-09-03T11:30:26.613Z,26.37
2018-09-03T11:33:12.911Z,26.25
2018-09-03T11:35:41.144Z,26.34
2018-09-03T11:38:09.387Z,26.29
2018-09-03T11:40:37.635Z,26.65
2018-09-03T11:43:06.396Z,26.32
2018-09-03T11:45:34.706Z,26.29
2018-09-03T11:48:03.202Z,26.46
2018-09-03T11:50:31.920Z,26.73
2018-09-03T11:53:00.230Z,26.95
2018-09-03T11:55:29.248Z,26.87
2018-09-03T11:57:57.912Z,26.95
2018-09-03T12:00:27.735Z,26.95
2018-09-03T12:02:56.082Z,27.26
2018-09-03T12:05:24.359Z,27.21
2018-09-03T12:07:52.874Z,27.25
2018-09-03T12:10:21.228Z,27.23
2018-09-03T12:12:49.534Z,27.24
2018-09-03T12:15:42.669Z,27.33
2018-09-03T12:18:10.998Z,27.48
2018-09-03T12:20:41.308Z,27.65
2018-09-03T12:23:09.545Z,27.56
2018-09-03T12:25:37.898Z,27.66
2018-09-03T12:28:06.301Z,27.44
2018-09-03T12:30:34.591Z,27.52
2018-09-03T12:33:02.898Z,27.45
2018-09-03T12:35:31.281Z,27.33
2018-09-03T12:37:59.606Z,27.38
2018-09-03T12:40:29.161Z,27.54
2018-09-03T12:42:56.235Z,27.61
2018-09-03T12:45:43.526Z,27.61
2018-09-03T12:48:11.961Z,27.59
2018-09-03T12:50:40.337Z,27.77
2018-09-03T12:53:08.772Z,27.62
2018-09-03T12:55:37.211Z,27.78
2018-09-03T12:58:06.121Z,27.58
2018-09-03T13:00:38.676Z,27.88
2018-09-03T13:03:02.925Z,28.10
2018-09-03T13:05:31.671Z,27.96
2018-09-03T13:07:59.910Z,27.91
2018-09-03T13:10:28.268Z,28.08
2018-09-03T13:12:56.784Z,28.16
2018-09-03T13:15:33.011Z,28.05
2018-09-03T13:18:01.405Z,27.94
2018-09-03T13:20:29.644Z,27.76
2018-09-03T13:22:58.049Z,27.88
2018-09-03T13:25:26.397Z,27.86
2018-09-03T13:27:54.747Z,27.78
2018-09-03T13:30:23.361Z,27.62
2018-09-03T13:32:51.668Z,27.50
2018-09-03T13:35:19.910Z,27.52
2018-09-03T13:37:48.219Z,27.42
2018-09-03T13:40:16.685Z,27.43
2018-09-03T13:42:44.972Z,27.39
2018-09-03T13:45:13.413Z,27.45
2018-09-03T13:47:41.915Z,27.46
2018-09-03T13:50:10.368Z,27.31
2018-09-03T13:52:38.811Z,27.35
2018-09-03T13:55:07.684Z,27.34
2018-09-03T13:57:36.056Z,27.39
2018-09-03T14:00:23.748Z,27.44
2018-09-03T14:02:52.048Z,27.44
2018-09-03T14:05:20.441Z,27.30
2018-09-03T14:07:48.847Z,27.38
2018-09-03T14:10:17.345Z,27.49
2018-09-03T14:12:45.968Z,27.49
2018-09-03T14:15:14.368Z,27.37
2018-09-03T14:17:42.925Z,27.35
2018-09-03T14:20:11.512Z,27.26
2018-09-03T14:22:39.815Z,27.26
2018-09-03T14:25:08.300Z,27.36
2018-09-03T14:27:36.759Z,27.30
2018-09-03T14:30:05.233Z,27.30
2018-09-03T14:32:33.651Z,27.35
2018-09-03T14:35:02.116Z,27.30
2018-09-03T14:37:30.903Z,27.15
2018-09-03T14:39:59.311Z,27.15
2018-09-03T14:42:27.684Z,27.21
2018-09-03T14:44:56.237Z,27.25
2018-09-03T14:47:24.840Z,27.27
2018-09-03T14:49:53.227Z,27.30
2018-09-03T14:52:21.483Z,27.32
2018-09-03T14:54:49.901Z,27.34
2018-09-03T14:57:18.277Z,27.26
2018-09-03T14:59:46.865Z,27.24
2018-09-03T15:02:15.342Z,27.23
2018-09-03T15:04:43.648Z,27.30
2018-09-03T15:07:12.436Z,27.26
2018-09-03T15:09:40.724Z,27.26
2018-09-03T15:12:09.225Z,27.26
2018-09-03T15:14:37.700Z,27.24
2018-09-03T15:17:06.517Z,27.33
2018-09-03T15:19:34.971Z,27.35
2018-09-03T15:22:03.581Z,27.29
2018-09-03T15:24:32.091Z,27.20
2018-09-03T15:27:00.350Z,27.21
2018-09-03T15:29:28.926Z,27.20
2018-09-03T15:31:57.904Z,27.22
2018-09-03T15:34:26.324Z,27.22
2018-09-03T15:36:54.594Z,27.26
2018-09-03T15:39:23.092Z,27.23
2018-09-03T15:41:51.555Z,27.17
2018-09-03T15:44:20.196Z,27.05
2018-09-03T15:46:48.920Z,27.18
2018-09-03T15:49:17.443Z,27.16
2018-09-03T15:51:46.091Z,27.18
2018-09-03T15:54:14.951Z,27.10
2018-09-03T15:56:43.274Z,27.14
2018-09-03T15:59:11.956Z,27.05
2018-09-03T16:01:40.807Z,26.99
2018-09-03T16:04:09.306Z,26.97
2018-09-03T16:06:37.854Z,26.98
2018-09-03T16:09:08.881Z,26.98
2018-09-03T16:11:38.396Z,26.92
2018-09-03T16:14:07.575Z,26.93
2018-09-03T16:16:36.192Z,26.89
2018-09-03T16:19:04.690Z,26.82
2018-09-03T16:21:33.783Z,26.78
2018-09-03T16:24:02.073Z,26.75
2018-09-03T16:26:30.600Z,26.78
2018-09-03T16:28:59.240Z,26.73
2018-09-03T16:31:27.829Z,26.71
2018-09-03T16:33:58.991Z,26.72
2018-09-03T16:36:27.223Z,26.64
2018-09-03T16:38:55.556Z,26.56
2018-09-03T16:41:23.764Z,26.49
2018-09-03T16:43:52.365Z,26.46
2018-09-03T16:46:21.072Z,26.47
2018-09-03T16:48:49.404Z,26.46
2018-09-03T16:51:17.659Z,26.39
2018-09-03T16:53:46.202Z,26.29
2018-09-03T16:56:14.562Z,26.24
2018-09-03T16:58:42.940Z,26.15
2018-09-03T17:01:11.265Z,26.09
2018-09-03T17:03:39.670Z,26.05
2018-09-03T17:06:16.836Z,25.99
2018-09-03T17:08:45.111Z,25.99
2018-09-03T17:11:13.346Z,25.89
2018-09-03T17:13:41.591Z,25.78
2018-09-03T17:16:10.248Z,25.75
2018-09-03T17:18:38.620Z,25.77
2018-09-03T17:21:07.197Z,25.81
2018-09-03T17:23:35.605Z,25.72
2018-09-03T17:26:03.974Z,25.72
2018-09-03T17:28:32.402Z,25.68
2018-09-03T17:31:00.768Z,25.53
2018-09-03T17:33:29.079Z,25.48
2018-09-03T17:36:00.028Z,25.45
2018-09-03T17:38:28.245Z,25.38
2018-09-03T17:40:56.579Z,25.36
2018-09-03T17:43:25.130Z,25.28
2018-09-03T17:45:53.560Z,25.25
2018-09-03T17:48:22.505Z,25.11
2018-09-03T17:50:50.882Z,25.02
2018-09-03T17:53:19.309Z,24.93
2018-09-03T17:55:48.053Z,24.87
2018-09-03T17:58:16.573Z,24.63
2018-09-03T18:00:44.917Z,24.62
2018-09-03T18:03:13.578Z,24.61
2018-09-03T18:05:42.638Z,24.60
2018-09-03T18:08:11.423Z,24.50
2018-09-03T18:10:39.672Z,24.52
2018-09-03T18:13:09.494Z,24.44
2018-09-03T18:15:36.738Z,24.41
2018-09-03T18:18:05.082Z,24.36
2018-09-03T18:20:33.579Z,24.41
2018-09-03T18:23:02.424Z,24.25
2018-09-03T18:25:31.410Z,24.36
2018-09-03T18:28:00.284Z,24.28
2018-09-03T18:30:29.392Z,24.28
2018-09-03T18:32:58.108Z,24.09
2018-09-03T18:35:27.001Z,23.89
2018-09-03T18:37:55.592Z,23.85
2018-09-03T18:40:24.164Z,23.86
2018-09-03T18:42:52.888Z,23.73
2018-09-03T18:45:21.778Z,23.58
2018-09-03T18:47:50.656Z,23.60
2018-09-03T18:50:19.351Z,23.65
2018-09-03T18:52:47.871Z,23.65
2018-09-03T18:55:16.641Z,23.51
2018-09-03T18:57:45.004Z,23.58
2018-09-03T19:00:14.508Z,23.58
2018-09-03T19:02:43.318Z,23.57
2018-09-03T19:05:12.021Z,23.54
2018-09-03T19:07:41.312Z,23.43
2018-09-03T19:10:10.524Z,23.45
2018-09-03T19:12:39.684Z,23.43
2018-09-03T19:15:08.418Z,23.32
2018-09-03T19:17:36.857Z,23.38
2018-09-03T19:20:05.451Z,23.33
2018-09-03T19:22:34.042Z,23.37
2018-09-03T19:25:02.767Z,23.37
2018-09-03T19:27:31.193Z,23.43
2018-09-03T19:29:59.699Z,23.27
2018-09-03T19:32:27.996Z,23.26
2018-09-03T19:34:56.643Z,23.19
2018-09-03T19:37:24.992Z,23.16
2018-09-03T19:39:55.634Z,23.15
2018-09-03T19:42:23.956Z,23.18
2018-09-03T19:44:52.585Z,22.99
2018-09-03T19:47:21.105Z,22.95
2018-09-03T19:49:49.743Z,22.89
2018-09-03T19:55:25.506Z,22.83
2018-09-03T19:57:54.258Z,22.88
2018-09-03T20:00:23.435Z,22.87
2018-09-03T20:02:51.983Z,22.88
2018-09-03T20:05:20.566Z,22.91
2018-09-03T20:07:49.303Z,22.93
2018-09-03T20:10:18.156Z,22.91
2018-09-03T20:12:46.823Z,22.87
2018-09-03T20:15:25.114Z,22.84
2018-09-03T20:17:54.789Z,22.81
2018-09-03T20:20:23.884Z,22.91
2018-09-03T20:22:52.361Z,22.57
2018-09-03T20:25:21.756Z,22.54
2018-09-03T20:27:53.665Z,22.45
2018-09-03T20:30:22.551Z,22.25
2018-09-03T20:32:51.315Z,22.26
2018-09-03T20:35:20.230Z,22.21
2018-09-03T20:37:48.826Z,22.19
2018-09-03T20:40:17.387Z,22.17
2018-09-03T20:42:46.046Z,22.08
2018-09-03T20:45:14.541Z,22.17
2018-09-03T20:47:42.970Z,22.22
2018-09-03T20:50:11.910Z,22.10
2018-09-03T20:52:40.787Z,22.17
2018-09-03T20:55:09.372Z,22.22
2018-09-03T20:57:38.107Z,22.00
2018-09-03T21:00:07.345Z,22.02
2018-09-03T21:02:36.025Z,21.93
2018-09-03T21:05:05.013Z,22.05
2018-09-03T21:07:33.851Z,22.06
2018-09-03T21:10:02.632Z,22.08
2018-09-03T21:12:31.597Z,21.90
2018-09-03T21:15:00.159Z,21.91
2018-09-03T21:17:28.616Z,21.90
2018-09-03T21:19:57.176Z,21.92
2018-09-03T21:22:25.568Z,21.88
2018-09-03T21:24:54.214Z,21.86
2018-09-03T21:27:22.660Z,21.79
2018-09-03T21:29:50.933Z,21.71
2018-09-03T21:32:19.333Z,21.76
2018-09-03T21:34:47.578Z,21.68
2018-09-03T21:37:16.472Z,21.76
2018-09-03T21:39:44.904Z,21.80
2018-09-03T21:42:13.125Z,21.67
2018-09-03T21:44:41.473Z,21.60
2018-09-03T21:47:09.776Z,21.25
2018-09-03T21:49:38.132Z,21.18
2018-09-03T21:52:06.502Z,21.10
2018-09-03T21:54:34.940Z,21.12
2018-09-03T21:57:03.261Z,21.07
2018-09-03T21:59:31.496Z,21.03
2018-09-03T22:01:59.839Z,21.07
2018-09-03T22:04:28.365Z,21.05
2018-09-03T22:06:56.733Z,20.80
2018-09-03T22:09:25.097Z,20.75
2018-09-03T22:11:53.694Z,20.74
2018-09-03T22:14:22.081Z,20.76
2018-09-03T22:16:50.282Z,20.72
2018-09-03T22:19:18.743Z,20.89
2018-09-03T22:21:47.230Z,20.88
2018-09-03T22:24:15.501Z,20.92
2018-09-03T22:26:44.216Z,20.87
2018-09-03T22:29:12.886Z,20.92
2018-09-03T22:31:41.463Z,20.91
2018-09-03T22:34:09.899Z,20.80
2018-09-03T22:36:38.277Z,20.68
2018-09-03T22:39:07.476Z,20.62
2018-09-03T22:41:35.806Z,20.50
2018-09-03T22:44:04.121Z,20.44
2018-09-03T22:46:32.500Z,20.42
2018-09-03T22:49:00.979Z,20.47
2018-09-03T22:51:29.210Z,20.48
2018-09-03T22:53:57.591Z,20.47
2018-09-03T22:56:26.072Z,20.38
2018-09-03T22:58:54.396Z,20.38
2018-09-03T23:01:22.670Z,20.40
2018-09-03T23:03:50.962Z,20.34
2018-09-03T23:06:19.294Z,20.34
2018-09-03T23:08:47.601Z,20.34
2018-09-03T23:11:15.906Z,20.26
2018-09-03T23:13:44.108Z,20.29
2018-09-03T23:16:12.347Z,20.17
2018-09-03T23:18:40.663Z,20.13
2018-09-03T23:21:08.938Z,20.22
2018-09-03T23:23:37.159Z,20.04
2018-09-03T23:26:05.409Z,19.89
2018-09-03T23:28:33.747Z,19.78
2018-09-03T23:31:02.011Z,19.83
2018-09-03T23:33:30.383Z,19.97
2018-09-03T23:35:58.682Z,19.94
2018-09-03T23:38:26.982Z,19.87
2018-09-03T23:40:55.420Z,19.76
2018-09-03T23:43:23.667Z,19.83
2018-09-03T23:45:51.959Z,19.72
2018-09-03T23:48:20.266Z,19.81
2018-09-03T23:50:48.453Z,19.84
2018-09-03T23:53:16.812Z,19.77
2018-09-03T23:55:45.076Z,19.97
2018-09-03T23:58:13.348Z,19.65
